createdAt,value
2023-03-13T00:02:03.715Z,7.28
2023-03-13T00:04:33.362Z,7.90
2023-03-13T00:07:01.610Z,7.90
2023-03-13T00:09:29.982Z,6.72
2023-03-13T00:11:58.314Z,7.45
2023-03-13T00:14:26.480Z,7.75
2023-03-13T00:16:54.656Z,6.97
2023-03-13T00:19:22.936Z,7.38
2023-03-13T00:21:52.541Z,6.97
2023-03-13T00:24:20.710Z,8.00
2023-03-13T00:26:48.888Z,8.02
2023-03-13T00:29:16.957Z,7.05
2023-03-13T00:31:45.271Z,6.20
2023-03-13T00:34:13.502Z,6.43
2023-03-13T00:36:41.735Z,6.22
2023-03-13T00:39:11.332Z,7.50
2023-03-13T00:41:39.727Z,7.75
2023-03-13T00:44:08.236Z,7.75
2023-03-13T00:46:37.217Z,6.47
2023-03-13T00:49:05.795Z,7.90
2023-03-13T00:51:34.876Z,6.97
2023-03-13T00:54:04.029Z,7.32
2023-03-13T00:56:33.632Z,7.07
2023-03-13T00:59:02.560Z,7.22
2023-03-13T01:01:33.843Z,7.25
2023-03-13T01:04:03.998Z,7.47
2023-03-13T01:06:35.209Z,7.82
2023-03-13T01:09:04.077Z,7.90
2023-03-13T01:11:37.000Z,7.60
2023-03-13T01:14:08.332Z,8.32
2023-03-13T01:16:38.335Z,7.35
2023-03-13T01:19:12.931Z,7.85
2023-03-13T01:21:42.377Z,8.25
2023-03-13T01:24:10.783Z,6.88
2023-03-13T01:26:40.815Z,8.25
2023-03-13T01:29:09.170Z,7.65
2023-03-13T01:31:38.455Z,7.43
2023-03-13T01:34:07.451Z,7.07
2023-03-13T01:36:38.332Z,6.85
2023-03-13T01:39:07.255Z,6.57
2023-03-13T01:41:35.526Z,6.78
2023-03-13T01:44:05.659Z,6.90
2023-03-13T01:46:33.905Z,6.72
2023-03-13T01:49:06.417Z,7.68
2023-03-13T01:51:39.902Z,7.00
2023-03-13T01:54:12.880Z,6.95
2023-03-13T01:56:49.513Z,7.53
2023-03-13T01:59:23.945Z,6.30
2023-03-13T02:01:54.504Z,6.70
2023-03-13T02:04:24.511Z,6.72
2023-03-13T02:06:59.632Z,6.72
2023-03-13T02:09:33.686Z,7.32
2023-03-13T02:12:08.632Z,8.27
2023-03-13T02:14:43.856Z,8.63
2023-03-13T02:17:13.008Z,8.93
2023-03-13T02:19:46.454Z,9.57
2023-03-13T02:22:26.346Z,9.65
2023-03-13T02:25:02.464Z,10.43
2023-03-13T02:27:33.226Z,9.95
2023-03-13T02:30:02.064Z,10.70
2023-03-13T02:32:33.069Z,11.73
2023-03-13T02:35:07.730Z,11.10
2023-03-13T02:37:38.356Z,12.83
2023-03-13T02:40:12.817Z,12.25
2023-03-13T02:42:47.071Z,12.73
2023-03-13T02:45:17.627Z,11.63
2023-03-13T02:47:46.484Z,13.20
2023-03-13T02:50:15.807Z,12.70
2023-03-13T02:52:47.639Z,13.82
2023-03-13T02:55:19.189Z,13.80
2023-03-13T02:57:49.760Z,14.43
2023-03-13T03:00:19.787Z,15.00
2023-03-13T03:02:48.145Z,14.80
2023-03-13T03:05:16.640Z,14.88
2023-03-13T03:07:45.447Z,15.18
2023-03-13T03:10:16.539Z,15.95
2023-03-13T03:12:46.481Z,15.77
2023-03-13T03:15:16.629Z,14.98
2023-03-13T03:17:44.983Z,15.55
2023-03-13T03:20:13.839Z,16.00
2023-03-13T03:22:42.384Z,15.77
2023-03-13T03:25:11.610Z,15.23
2023-03-13T03:27:39.961Z,15.95
2023-03-13T03:30:10.247Z,17.77
2023-03-13T03:32:41.233Z,18.33
2023-03-13T03:35:10.440Z,17.60
2023-03-13T03:37:40.075Z,18.60
2023-03-13T03:40:11.390Z,17.95
2023-03-13T03:42:40.915Z,17.80
2023-03-13T03:45:10.905Z,17.67
2023-03-13T03:47:41.476Z,17.85
2023-03-13T03:50:12.581Z,17.88
2023-03-13T03:52:41.640Z,17.98
2023-03-13T03:55:11.454Z,17.73
2023-03-13T03:57:40.288Z,16.85
2023-03-13T04:00:15.983Z,17.17
2023-03-13T04:02:47.530Z,16.77
2023-03-13T04:05:16.886Z,15.95
2023-03-13T04:07:45.432Z,15.52
2023-03-13T04:10:14.373Z,16.70
2023-03-13T04:12:44.081Z,15.05
2023-03-13T04:15:15.068Z,15.75
2023-03-13T04:17:43.745Z,15.45
2023-03-13T04:20:15.079Z,15.15
2023-03-13T04:22:44.142Z,14.57
2023-03-13T04:25:15.550Z,13.63
2023-03-13T04:27:44.176Z,13.93
2023-03-13T04:30:15.909Z,13.57
2023-03-13T04:32:45.677Z,12.82
2023-03-13T04:35:16.267Z,12.68
2023-03-13T04:37:45.136Z,10.98
2023-03-13T04:40:14.914Z,12.30
2023-03-13T04:42:44.195Z,10.70
2023-03-13T04:45:13.451Z,9.45
2023-03-13T04:47:42.302Z,9.80
2023-03-13T04:50:12.935Z,9.70
2023-03-13T04:52:45.175Z,9.18
2023-03-13T04:55:14.347Z,9.35
2023-03-13T04:57:43.127Z,9.07
2023-03-13T05:00:13.250Z,8.95
2023-03-13T05:02:41.659Z,9.02
2023-03-13T05:05:10.482Z,8.93
2023-03-13T05:07:38.931Z,9.20
2023-03-13T05:10:10.127Z,9.48
2023-03-13T05:12:38.555Z,9.05
2023-03-13T05:15:07.952Z,8.98
2023-03-13T05:17:36.370Z,10.15
2023-03-13T05:20:08.010Z,9.15
2023-03-13T05:22:36.473Z,8.88
2023-03-13T05:25:05.923Z,9.13
2023-03-13T05:27:36.049Z,9.88
2023-03-13T05:30:05.324Z,10.43
2023-03-13T05:32:33.860Z,10.55
2023-03-13T05:35:02.382Z,9.30
2023-03-13T05:37:30.901Z,9.95
2023-03-13T05:39:59.253Z,8.82
2023-03-13T05:42:27.948Z,8.95
2023-03-13T05:44:58.018Z,8.38
2023-03-13T05:47:26.538Z,8.10
2023-03-13T05:49:55.208Z,8.38
2023-03-13T05:52:24.070Z,7.38
2023-03-13T05:54:52.567Z,6.15
2023-03-13T05:57:21.053Z,7.07
2023-03-13T05:59:49.968Z,6.20
2023-03-13T06:02:22.087Z,5.78
2023-03-13T06:04:50.693Z,6.82
2023-03-13T06:07:19.300Z,5.10
2023-03-13T06:09:48.504Z,5.30
2023-03-13T06:12:17.002Z,5.32
2023-03-13T06:14:45.759Z,5.00
2023-03-13T06:17:14.163Z,5.28
2023-03-13T06:19:44.329Z,5.13
2023-03-13T06:22:12.904Z,4.97
2023-03-13T06:24:41.450Z,4.78
2023-03-13T06:27:10.252Z,4.80
2023-03-13T06:29:39.335Z,5.88
2023-03-13T06:32:08.805Z,4.60
2023-03-13T06:34:39.492Z,5.18
2023-03-13T06:37:09.598Z,5.07
2023-03-13T06:39:38.194Z,5.00
2023-03-13T06:42:07.819Z,5.25
2023-03-13T06:44:36.575Z,4.80
2023-03-13T06:47:05.169Z,4.60
2023-03-13T06:49:34.322Z,4.50
2023-03-13T06:52:03.108Z,4.10
2023-03-13T06:54:39.985Z,4.03
2023-03-13T06:57:08.570Z,4.22
2023-03-13T06:59:37.367Z,5.15
2023-03-13T07:02:06.458Z,6.07
2023-03-13T07:04:35.357Z,5.13
2023-03-13T07:07:05.006Z,5.18
2023-03-13T07:09:37.452Z,5.32
2023-03-13T07:12:07.480Z,5.50
2023-03-13T07:14:35.960Z,5.30
2023-03-13T07:17:04.672Z,5.35
2023-03-13T07:19:33.421Z,5.75
2023-03-13T07:22:02.010Z,5.70
2023-03-13T07:24:31.470Z,6.07
2023-03-13T07:27:07.287Z,6.20
2023-03-13T07:29:36.866Z,5.90
2023-03-13T07:32:05.841Z,5.57
2023-03-13T07:34:35.598Z,5.93
2023-03-13T07:37:04.138Z,5.22
2023-03-13T07:39:32.617Z,6.28
2023-03-13T07:42:02.633Z,6.60
2023-03-13T07:44:31.270Z,6.95
2023-03-13T07:47:01.883Z,6.55
2023-03-13T07:49:30.465Z,6.45
2023-03-13T07:52:02.838Z,6.85
2023-03-13T07:54:31.805Z,6.78
2023-03-13T07:57:03.311Z,6.03
2023-03-13T07:59:32.902Z,6.63
2023-03-13T08:02:01.499Z,7.22
2023-03-13T08:04:30.154Z,5.63
2023-03-13T08:06:58.716Z,6.32
2023-03-13T08:09:27.301Z,6.57
2023-03-13T08:11:55.779Z,6.45
2023-03-13T08:14:27.144Z,6.03
2023-03-13T08:16:55.920Z,5.90
2023-03-13T08:19:24.428Z,5.90
2023-03-13T08:21:54.689Z,5.63
2023-03-13T08:24:23.680Z,6.25
2023-03-13T08:26:52.993Z,5.47
2023-03-13T08:29:28.565Z,6.15
2023-03-13T08:31:58.072Z,5.25
2023-03-13T08:34:26.864Z,5.30
2023-03-13T08:36:57.120Z,5.10
2023-03-13T08:39:26.640Z,4.35
2023-03-13T08:41:55.288Z,4.88
2023-03-13T08:44:24.029Z,4.93
2023-03-13T08:46:57.244Z,4.32
2023-03-13T08:49:26.845Z,4.28
2023-03-13T08:51:56.737Z,3.70
2023-03-13T08:54:25.396Z,2.95
2023-03-13T08:56:53.758Z,3.40
2023-03-13T08:59:22.575Z,3.00
2023-03-13T09:01:54.617Z,3.55
2023-03-13T09:04:23.413Z,3.50
2023-03-13T09:06:52.625Z,3.03
2023-03-13T09:09:21.759Z,4.18
2023-03-13T09:11:52.524Z,3.55
2023-03-13T09:14:21.131Z,3.20
2023-03-13T09:16:49.883Z,2.75
2023-03-13T09:19:19.844Z,3.58
2023-03-13T09:21:49.347Z,2.88
2023-03-13T09:24:18.074Z,3.38
2023-03-13T09:27:00.929Z,2.70
2023-03-13T09:29:30.367Z,2.75
2023-03-13T09:31:58.657Z,2.72
2023-03-13T09:34:33.351Z,3.00
2023-03-13T09:37:01.829Z,3.47
2023-03-13T09:39:30.497Z,2.58
2023-03-13T09:42:11.298Z,3.25
2023-03-13T09:44:46.640Z,2.83
2023-03-13T09:49:56.916Z,2.72
2023-03-13T09:52:28.080Z,3.13
2023-03-13T09:55:00.829Z,3.08
2023-03-13T09:57:35.568Z,3.20
2023-03-13T10:00:12.998Z,2.92
2023-03-13T10:02:47.737Z,3.38
2023-03-13T10:05:22.391Z,2.80
2023-03-13T10:07:52.298Z,2.67
2023-03-13T10:10:36.975Z,2.55
2023-03-13T10:13:17.934Z,2.22
2023-03-13T10:15:51.967Z,2.75
2023-03-13T10:18:23.812Z,2.88
2023-03-13T10:21:01.241Z,2.22
2023-03-13T10:23:41.168Z,1.98
2023-03-13T10:26:20.899Z,2.15
2023-03-13T10:28:51.723Z,1.98
2023-03-13T10:31:28.480Z,1.88
2023-03-13T10:34:07.827Z,1.98
2023-03-13T10:36:45.278Z,1.75
2023-03-13T10:39:19.653Z,2.08
2023-03-13T10:41:49.838Z,2.50
2023-03-13T10:44:26.896Z,1.92
2023-03-13T10:47:03.102Z,1.65
2023-03-13T10:49:33.894Z,1.80
2023-03-13T10:52:06.710Z,2.13
2023-03-13T10:54:37.716Z,1.83
2023-03-13T10:57:30.336Z,1.67
2023-03-13T11:00:03.134Z,2.20
2023-03-13T11:02:38.640Z,2.03
2023-03-13T11:05:33.026Z,1.98
2023-03-13T11:08:24.021Z,2.35
2023-03-13T11:11:01.170Z,2.28
2023-03-13T11:13:39.943Z,2.58
2023-03-13T11:16:21.029Z,2.45
2023-03-13T11:19:30.322Z,2.13
2023-03-13T11:22:16.487Z,2.30
2023-03-13T11:24:59.325Z,2.50
2023-03-13T11:27:37.174Z,2.45
2023-03-13T11:30:22.774Z,2.08
2023-03-13T11:32:56.659Z,2.30
2023-03-13T11:35:41.161Z,2.38
2023-03-13T11:38:20.292Z,2.95
2023-03-13T11:41:05.346Z,2.45
2023-03-13T11:43:59.664Z,2.03
2023-03-13T11:46:50.895Z,2.85
2023-03-13T11:49:54.237Z,3.55
2023-03-13T11:52:44.162Z,3.08
2023-03-13T11:55:39.190Z,3.22
2023-03-13T11:58:48.454Z,2.42
2023-03-13T12:01:20.304Z,2.90
2023-03-13T12:04:00.163Z,3.67
2023-03-13T12:06:41.759Z,4.07
2023-03-13T12:09:28.374Z,3.63
2023-03-13T12:12:17.795Z,3.17
2023-03-13T12:14:54.098Z,4.03
2023-03-13T12:17:35.863Z,3.80
2023-03-13T12:20:21.446Z,4.95
2023-03-13T12:23:02.854Z,3.65
2023-03-13T12:25:51.006Z,3.67
2023-03-13T12:28:36.147Z,3.97
2023-03-13T12:31:20.889Z,4.22
2023-03-13T12:34:01.430Z,2.90
2023-03-13T12:36:38.291Z,3.30
2023-03-13T12:39:28.191Z,3.95
2023-03-13T12:42:11.970Z,3.75
2023-03-13T12:44:55.002Z,3.97
2023-03-13T12:47:34.364Z,4.45
2023-03-13T12:50:49.517Z,4.45
2023-03-13T12:54:09.035Z,4.55
2023-03-13T12:57:19.365Z,4.18
2023-03-13T12:59:51.548Z,3.80
2023-03-13T13:02:26.774Z,3.78
2023-03-13T13:07:40.441Z,3.83
2023-03-13T13:10:25.396Z,4.20
2023-03-13T13:13:33.942Z,4.13
2023-03-13T13:16:06.724Z,4.75
2023-03-13T13:18:46.749Z,4.65
2023-03-13T13:21:26.713Z,4.65
2023-03-13T13:23:56.655Z,4.50
2023-03-13T13:26:51.030Z,5.43
2023-03-13T13:30:04.069Z,5.43
2023-03-13T13:32:46.312Z,4.72
2023-03-13T13:35:40.269Z,4.35
2023-03-13T13:38:37.202Z,3.67
2023-03-13T13:41:43.787Z,4.53
2023-03-13T13:44:58.207Z,4.35
2023-03-13T13:47:33.118Z,3.95
2023-03-13T13:50:03.717Z,3.88
2023-03-13T13:52:39.276Z,5.00
2023-03-13T13:55:50.905Z,4.93
2023-03-13T13:58:23.730Z,4.68
2023-03-13T14:00:57.007Z,4.78
2023-03-13T14:03:28.319Z,4.28
2023-03-13T14:06:04.685Z,4.40
2023-03-13T14:08:39.522Z,5.07
2023-03-13T14:11:26.869Z,4.97
2023-03-13T14:14:15.842Z,4.55
2023-03-13T14:16:47.830Z,5.60
2023-03-13T14:19:32.743Z,5.55
2023-03-13T14:22:03.233Z,5.60
2023-03-13T14:24:33.297Z,5.97
2023-03-13T14:27:02.386Z,5.15
2023-03-13T14:29:31.434Z,4.97
2023-03-13T14:32:01.994Z,5.43
2023-03-13T14:34:32.752Z,5.38
2023-03-13T14:37:17.632Z,5.28
2023-03-13T14:39:51.298Z,5.57
2023-03-13T14:42:20.618Z,5.10
2023-03-13T14:44:50.517Z,4.85
2023-03-13T14:47:36.420Z,4.47
2023-03-13T14:50:13.532Z,5.38
2023-03-13T14:52:49.743Z,5.60
2023-03-13T14:55:42.196Z,5.60
2023-03-13T14:58:29.207Z,4.93
2023-03-13T15:01:01.682Z,4.50
2023-03-13T15:03:33.641Z,5.10
2023-03-13T15:06:20.768Z,4.65
2023-03-13T15:08:51.742Z,4.82
2023-03-13T15:11:30.437Z,4.78
2023-03-13T15:13:59.137Z,4.65
2023-03-13T15:16:29.476Z,4.65
2023-03-13T15:18:59.250Z,4.97
2023-03-13T15:21:32.193Z,5.13
2023-03-13T15:24:14.176Z,4.82
2023-03-13T15:26:47.214Z,4.20
2023-03-13T15:29:22.285Z,4.63
2023-03-13T15:31:50.940Z,4.68
2023-03-13T15:34:25.416Z,4.40
2023-03-13T15:36:56.326Z,4.97
2023-03-13T15:39:26.017Z,4.43
2023-03-13T15:42:04.092Z,4.70
2023-03-13T15:44:33.236Z,4.40
2023-03-13T15:47:01.773Z,5.15
2023-03-13T15:49:33.058Z,4.75
2023-03-13T15:52:02.265Z,5.68
2023-03-13T15:54:35.972Z,5.35
2023-03-13T15:57:06.609Z,4.78
2023-03-13T15:59:51.153Z,4.28
2023-03-13T16:02:23.757Z,5.03
2023-03-13T16:04:53.130Z,4.55
2023-03-13T16:07:23.179Z,4.63
2023-03-13T16:09:58.005Z,4.93
2023-03-13T16:12:40.085Z,5.10
2023-03-13T16:15:11.017Z,4.90
2023-03-13T16:17:43.032Z,5.93
2023-03-13T16:20:18.609Z,4.93
2023-03-13T16:22:47.152Z,5.88
2023-03-13T16:25:16.742Z,5.78
2023-03-13T16:27:49.340Z,5.40
2023-03-13T16:30:25.493Z,5.07
2023-03-13T16:32:54.012Z,5.40
2023-03-13T16:38:09.414Z,5.65
2023-03-13T16:40:37.821Z,5.75
2023-03-13T16:43:07.846Z,6.07
2023-03-13T16:45:36.303Z,5.47
2023-03-13T16:48:05.420Z,5.22
2023-03-13T16:50:36.913Z,7.28
2023-03-13T16:53:05.799Z,6.57
2023-03-13T16:55:36.877Z,6.00
2023-03-13T16:58:08.882Z,5.05
2023-03-13T17:00:40.803Z,6.85
2023-03-13T17:03:09.835Z,5.75
2023-03-13T17:05:38.616Z,6.80
2023-03-13T17:08:07.763Z,6.47
2023-03-13T17:10:39.263Z,6.53
2023-03-13T17:13:10.059Z,5.78
2023-03-13T17:15:38.920Z,5.15
2023-03-13T17:18:07.452Z,5.60
2023-03-13T17:20:37.690Z,4.85
2023-03-13T17:23:12.990Z,6.22
2023-03-13T17:25:41.683Z,5.20
2023-03-13T17:28:15.232Z,5.63
2023-03-13T17:30:58.593Z,5.03
2023-03-13T17:33:27.473Z,5.80
2023-03-13T17:35:56.874Z,6.45
2023-03-13T17:38:26.656Z,6.72
2023-03-13T17:40:55.718Z,6.65
2023-03-13T17:43:26.367Z,6.30
2023-03-13T17:45:55.743Z,5.75
2023-03-13T17:48:27.802Z,5.88
2023-03-13T17:50:56.392Z,6.47
2023-03-13T17:53:25.128Z,5.75
2023-03-13T17:55:53.570Z,6.50
2023-03-13T17:58:22.164Z,6.53
2023-03-13T18:00:52.841Z,6.15
2023-03-13T18:03:22.251Z,6.85
2023-03-13T18:05:50.678Z,6.57
2023-03-13T18:08:19.398Z,6.30
2023-03-13T18:10:47.956Z,6.63
2023-03-13T18:13:16.530Z,6.13
2023-03-13T18:15:45.342Z,6.45
2023-03-13T18:18:18.687Z,5.82
2023-03-13T18:20:47.436Z,6.28
2023-03-13T18:23:16.301Z,6.32
2023-03-13T18:25:44.886Z,6.13
2023-03-13T18:28:14.498Z,6.82
2023-03-13T18:30:43.679Z,6.20
2023-03-13T18:33:12.834Z,6.15
2023-03-13T18:35:43.249Z,5.72
2023-03-13T18:38:14.145Z,7.13
2023-03-13T18:40:42.873Z,6.13
2023-03-13T18:43:11.306Z,6.32
2023-03-13T18:45:40.824Z,6.82
2023-03-13T18:48:12.628Z,6.57
2023-03-13T18:50:42.561Z,6.95
2023-03-13T18:53:10.908Z,6.38
2023-03-13T18:55:39.337Z,6.97
2023-03-13T18:58:08.013Z,5.85
2023-03-13T19:00:36.758Z,6.03
2023-03-13T19:03:05.758Z,6.63
2023-03-13T19:05:34.450Z,6.53
2023-03-13T19:08:04.987Z,6.60
2023-03-13T19:10:35.027Z,7.82
2023-03-13T19:13:03.335Z,6.10
2023-03-13T19:15:34.046Z,7.50
2023-03-13T19:18:04.064Z,6.95
2023-03-13T19:20:33.710Z,6.53
2023-03-13T19:23:03.604Z,8.30
2023-03-13T19:25:34.540Z,7.00
2023-03-13T19:28:03.258Z,7.70
2023-03-13T19:30:31.767Z,6.68
2023-03-13T19:33:00.354Z,6.72
2023-03-13T19:35:28.853Z,6.95
2023-03-13T19:37:57.582Z,6.72
2023-03-13T19:40:29.235Z,5.60
2023-03-13T19:42:58.127Z,6.20
2023-03-13T19:45:27.783Z,7.45
2023-03-13T19:47:57.630Z,5.88
2023-03-13T19:50:28.058Z,6.95
2023-03-13T19:52:56.495Z,5.97
2023-03-13T19:55:27.145Z,6.47
2023-03-13T19:57:55.855Z,6.07
2023-03-13T20:00:28.022Z,7.13
2023-03-13T20:02:57.333Z,6.40
2023-03-13T20:05:28.185Z,7.25
2023-03-13T20:07:57.857Z,6.43
2023-03-13T20:10:28.134Z,5.82
2023-03-13T20:12:59.192Z,6.95
2023-03-13T20:15:28.231Z,7.43
2023-03-13T20:17:56.740Z,6.55
2023-03-13T20:20:25.167Z,7.35
2023-03-13T20:22:54.182Z,6.53
2023-03-13T20:25:24.094Z,5.82
2023-03-13T20:27:55.208Z,6.20
2023-03-13T20:30:24.245Z,7.50
2023-03-13T20:32:59.142Z,6.80
2023-03-13T20:35:29.829Z,5.85
2023-03-13T20:38:00.878Z,6.25
2023-03-13T20:40:29.523Z,6.68
2023-03-13T20:42:59.828Z,6.82
2023-03-13T20:45:29.568Z,7.80
2023-03-13T20:47:58.889Z,6.97
2023-03-13T20:50:29.053Z,8.20
2023-03-13T20:52:57.461Z,6.38
2023-03-13T20:55:26.052Z,6.72
2023-03-13T20:57:54.528Z,7.38
2023-03-13T21:00:25.112Z,7.05
2023-03-13T21:02:54.661Z,6.50
2023-03-13T21:05:23.252Z,6.38
2023-03-13T21:07:51.914Z,6.15
2023-03-13T21:10:21.123Z,6.18
2023-03-13T21:12:49.955Z,7.18
2023-03-13T21:15:18.541Z,6.90
2023-03-13T21:17:48.532Z,7.18
2023-03-13T21:20:17.104Z,6.72
2023-03-13T21:22:45.953Z,5.90
2023-03-13T21:25:14.991Z,6.20
2023-03-13T21:27:44.931Z,6.65
2023-03-13T21:30:18.316Z,6.25
2023-03-13T21:32:48.622Z,6.18
2023-03-13T21:35:18.010Z,6.35
2023-03-13T21:37:46.514Z,5.82
2023-03-13T21:40:15.190Z,5.95
2023-03-13T21:42:43.636Z,6.20
2023-03-13T21:45:12.984Z,6.47
2023-03-13T21:47:41.462Z,6.22
2023-03-13T21:50:13.432Z,6.75
2023-03-13T21:52:42.482Z,6.25
2023-03-13T21:55:13.925Z,6.00
2023-03-13T21:57:42.335Z,5.78
2023-03-13T22:00:14.132Z,5.85
2023-03-13T22:02:43.418Z,6.50
2023-03-13T22:05:13.972Z,6.78
2023-03-13T22:07:42.461Z,5.75
2023-03-13T22:10:12.701Z,5.25
2023-03-13T22:12:40.913Z,6.43
2023-03-13T22:15:11.950Z,4.90
2023-03-13T22:17:40.477Z,5.55
2023-03-13T22:20:11.279Z,5.25
2023-03-13T22:22:41.079Z,5.05
2023-03-13T22:25:10.616Z,5.47
2023-03-13T22:27:39.177Z,5.78
2023-03-13T22:30:09.452Z,5.15
2023-03-13T22:32:38.048Z,5.25
2023-03-13T22:35:08.470Z,5.07
2023-03-13T22:37:37.102Z,5.55
2023-03-13T22:40:08.699Z,5.05
2023-03-13T22:42:37.301Z,5.20
2023-03-13T22:45:06.788Z,5.63
2023-03-13T22:47:35.420Z,5.72
2023-03-13T22:50:04.629Z,5.32
2023-03-13T22:52:33.539Z,5.18
2023-03-13T22:55:02.044Z,5.25
2023-03-13T22:57:32.229Z,6.07
2023-03-13T23:00:00.847Z,5.57
2023-03-13T23:02:30.004Z,5.30
2023-03-13T23:05:01.119Z,5.45
2023-03-13T23:07:32.283Z,5.28
2023-03-13T23:10:00.905Z,5.13
2023-03-13T23:12:30.991Z,5.07
2023-03-13T23:15:02.181Z,5.03
2023-03-13T23:17:33.127Z,5.45
2023-03-13T23:20:02.347Z,6.20
2023-03-13T23:22:32.885Z,5.15
2023-03-13T23:25:02.208Z,5.47
2023-03-13T23:27:31.820Z,6.07
2023-03-13T23:30:04.214Z,5.20
2023-03-13T23:32:36.248Z,4.50
2023-03-13T23:35:05.057Z,5.43
2023-03-13T23:37:34.221Z,5.20
2023-03-13T23:40:05.075Z,5.47
2023-03-13T23:42:33.477Z,4.93
2023-03-13T23:45:05.854Z,4.03
2023-03-13T23:47:35.279Z,5.45
2023-03-13T23:50:05.364Z,4.90
2023-03-13T23:52:35.366Z,4.65
2023-03-13T23:55:04.609Z,4.97
2023-03-13T23:57:33.399Z,4.00
